Time;durP1;ratioP1;P1;durP2;ratioP2;P2;SDS_P1;SDS_P2;PMS_P1;PMS_P2;Temp;Humidity;BMP_temperature;BMP_pressure;BME280_temperature;BME280_humidity;BME280_pressure;Samples;Min_cycle;Max_cycle;Signal;HPM_P1;HPM_P2
2022/10/16 00:02:04;;;;;;;;;;;;;;;18.76;68.65;100469.06;2379085;75;50354;-76
2022/10/16 00:05:05;;;;;;;;;;;;;;;18.76;68.76;100477.11;2351912;75;50281;-77
2022/10/16 00:08:07;;;;;;;;;;;;;;;18.75;68.56;100482.09;2379013;73;50337;-76
2022/10/16 00:11:10;;;;;;;;;;;;;;;18.75;68.62;100488.31;2378833;75;51500;-77
2022/10/16 00:14:13;;;;;;;;;;;;;;;18.76;68.53;100487.31;2378626;75;50839;-77
2022/10/16 00:17:14;;;;;;;;;;;;;;;18.75;68.62;100488.31;2353322;73;50205;-77
2022/10/16 00:20:16;;;;;;;;;;;;;;;18.75;68.59;100494.16;2379509;74;50312;-77
2022/10/16 00:23:17;;;;;;;;;;;;;;;18.76;68.48;100491.84;2380674;75;50783;-75
2022/10/16 00:26:19;;;;;;;;;;;;;;;18.76;68.61;100494.01;2381107;75;50260;-78
2022/10/16 00:29:21;;;;;;;;;;;;;;;18.76;68.63;100486.48;2349159;74;50049;-77
2022/10/16 00:32:22;;;;;;;;;;;;;;;18.77;68.63;100499.68;2346625;75;50765;-77
2022/10/16 00:35:24;;;;;;;;;;;;;;;18.76;68.56;100503.91;2355689;74;50671;-77
2022/10/16 00:38:25;;;;;;;;;;;;;;;18.75;68.56;100507.07;2322357;75;50132;-77
2022/10/16 00:41:27;;;;;;;;;;;;;;;18.75;68.49;100511.09;2355389;74;50792;-77
2022/10/16 00:44:45;;;;;;;;;;;;;;;18.77;68.54;100510.41;2394073;74;50688;-77
2022/10/16 00:47:48;;;;;;;;;;;;;;;18.75;68.63;100507.55;2394421;74;50733;-77
2022/10/16 00:50:50;;;;;;;;;;;;;;;18.76;68.58;100510.09;2394868;74;21671;-77
2022/10/16 00:53:51;;;;;;;;;;;;;;;18.77;68.49;100504.22;2355269;74;51862;-76
2022/10/16 00:56:53;;;;;;;;;;;;;;;18.75;68.57;100508.41;2350737;73;51430;-76
2022/10/16 00:59:55;;;;;;;;;;;;;;;18.76;68.45;100516.80;2381210;74;51571;-75
2022/10/16 01:02:57;;;;;;;;;;;;;;;18.76;68.52;100514.11;2381198;74;50764;-77
2022/10/16 01:06:18;;;;;;;;;;;;;;;18.76;68.48;100516.80;2382876;73;51867;-76
2022/10/16 01:09:22;;;;;;;;;;;;;;;18.77;68.39;100524.31;2381350;73;50581;-76
2022/10/16 01:12:26;;;;;;;;;;;;;;;18.78;68.38;100517.92;2380737;74;50416;-77
2022/10/16 01:15:31;;;;;;;;;;;;;;;18.76;68.49;100515.45;2380426;74;51461;-77
2022/10/16 01:18:34;;;;;;;;;;;;;;;18.76;68.43;100512.77;2380811;73;51773;-77
2022/10/16 01:21:37;;;;;;;;;;;;;;;18.75;68.32;100516.45;2370315;74;52471;-77
2022/10/16 01:24:42;;;;;;;;;;;;;;;18.75;68.40;100519.13;2367775;75;50789;-77
2022/10/16 01:27:44;;;;;;;;;;;;;;;18.76;68.51;100526.69;2366383;75;50676;-76
2022/10/16 01:30:45;;;;;;;;;;;;;;;18.76;68.41;100531.53;2342187;75;52656;-76
2022/10/16 01:33:48;;;;;;;;;;;;;;;18.77;68.32;100532.36;2348871;75;50713;-77
2022/10/16 01:36:51;;;;;;;;;;;;;;;18.76;68.37;100537.41;2381535;73;50424;-77
2022/10/16 01:39:53;;;;;;;;;;;;;;;18.74;68.43;100537.55;2378229;74;50317;-77
2022/10/16 01:42:56;;;;;;;;;;;;;;;18.75;68.27;100539.23;2399391;74;50061;-77
2022/10/16 01:45:58;;;;;;;;;;;;;;;18.76;68.38;100541.43;2366900;74;50696;-77
2022/10/16 01:48:59;;;;;;;;;;;;;;;18.75;68.35;100541.91;2379220;73;50790;-77
2022/10/16 01:52:03;;;;;;;;;;;;;;;18.77;68.30;100542.56;2379122;75;50776;-77
2022/10/16 01:55:04;;;;;;;;;;;;;;;18.76;68.24;100542.77;2353210;74;51058;-76
2022/10/16 01:58:06;;;;;;;;;;;;;;;18.76;68.31;100547.62;2379124;74;51529;-76
2022/10/16 02:01:08;;;;;;;;;;;;;;;18.76;68.27;100550.30;2353544;75;50757;-76
2022/10/16 02:04:13;;;;;;;;;;;;;;;18.76;68.24;100551.64;2379008;75;50744;-76
2022/10/16 02:07:15;;;;;;;;;;;;;;;18.74;68.27;100554.98;2352916;75;51334;-77
2022/10/16 02:10:17;;;;;;;;;;;;;;;18.75;68.23;100558.00;2379285;75;51399;-76
2022/10/16 02:13:32;;;;;;;;;;;;;;;18.76;68.27;100558.34;2379216;75;50389;-77
2022/10/16 02:16:38;;;;;;;;;;;;;;;18.76;68.21;100557.00;2379372;75;50653;-76
2022/10/16 02:19:40;;;;;;;;;;;;;;;18.76;68.27;100569.06;2357406;75;52714;-76
2022/10/16 02:22:43;;;;;;;;;;;;;;;18.76;68.25;100573.08;2372039;75;51884;-76
2022/10/16 02:25:44;;;;;;;;;;;;;;;18.76;68.27;100578.45;2376578;75;52173;-76
2022/10/16 02:28:47;;;;;;;;;;;;;;;18.75;68.17;100583.47;2379373;75;51478;-76
2022/10/16 02:31:50;;;;;;;;;;;;;;;18.76;68.14;100581.12;2354063;75;51502;-76
2022/10/16 02:34:52;;;;;;;;;;;;;;;18.75;68.08;100572.74;2369998;74;50803;-76
2022/10/16 02:37:54;;;;;;;;;;;;;;;18.77;68.18;100564.53;2379563;73;51332;-76
2022/10/16 02:40:55;;;;;;;;;;;;;;;18.77;68.22;100563.19;2379462;75;51468;-76
2022/10/16 02:43:57;;;;;;;;;;;;;;;18.75;68.27;100572.74;2353534;75;52478;-76
2022/10/16 02:46:58;;;;;;;;;;;;;;;18.76;68.18;100579.78;2355880;73;50818;-76
2022/10/16 02:50:00;;;;;;;;;;;;;;;18.77;68.27;100581.95;2356433;75;50085;-76
2022/10/16 02:53:01;;;;;;;;;;;;;;;18.75;68.28;100582.13;2377698;74;51603;-76
2022/10/16 02:56:03;;;;;;;;;;;;;;;18.75;68.32;100571.41;2394173;74;49480;-76
2022/10/16 02:59:05;;;;;;;;;;;;;;;18.76;68.29;100582.98;2352203;75;50039;-76
2022/10/16 03:02:06;;;;;;;;;;;;;;;18.75;68.25;100578.10;2352028;75;50390;-76
2022/10/16 03:05:08;;;;;;;;;;;;;;;18.74;68.11;100579.09;2378908;74;50703;-76
2022/10/16 03:08:10;;;;;;;;;;;;;;;18.75;68.25;100584.80;2353117;74;50129;-76
2022/10/16 03:11:11;;;;;;;;;;;;;;;18.74;68.27;100577.76;2379977;74;51599;-76
2022/10/16 03:14:13;;;;;;;;;;;;;;;18.74;68.28;100591.67;2355457;74;51512;-76
2022/10/16 03:17:16;;;;;;;;;;;;;;;18.75;68.19;100602.70;2391446;74;51482;-77
2022/10/16 03:20:18;;;;;;;;;;;;;;;18.74;68.46;100600.55;2356356;74;50300;-77
2022/10/16 03:23:19;;;;;;;;;;;;;;;18.75;68.61;100606.73;2317787;75;51749;-77
2022/10/16 03:26:21;;;;;;;;;;;;;;;18.74;68.62;100615.28;2343470;75;51599;-77
2022/10/16 03:29:22;;;;;;;;;;;;;;;18.74;68.38;100603.73;2379263;73;51523;-77
2022/10/16 03:32:25;;;;;;;;;;;;;;;18.74;68.47;100605.91;2379339;75;51455;-77
2022/10/16 03:35:26;;;;;;;;;;;;;;;18.75;68.41;100604.05;2393940;74;49628;-77
2022/10/16 03:38:28;;;;;;;;;;;;;;;18.72;68.27;100616.80;2379112;73;50536;-77
2022/10/16 03:41:29;;;;;;;;;;;;;;;18.74;68.27;100627.34;2379130;75;50394;-77
2022/10/16 03:44:31;;;;;;;;;;;;;;;18.72;68.35;100635.56;2393934;74;50046;-77
2022/10/16 03:47:33;;;;;;;;;;;;;;;18.73;68.25;100639.09;2366335;74;50200;-77
2022/10/16 03:50:34;;;;;;;;;;;;;;;18.74;68.28;100640.75;2394091;74;50284;-77
2022/10/16 03:53:36;;;;;;;;;;;;;;;18.74;68.34;100640.75;2390474;74;50845;-77
2022/10/16 03:56:37;;;;;;;;;;;;;;;18.74;68.26;100646.11;2365393;73;50722;-77
2022/10/16 03:59:39;;;;;;;;;;;;;;;18.75;68.26;100654.50;2379133;74;51475;-77
2022/10/16 04:02:41;;;;;;;;;;;;;;;18.75;68.24;100650.95;2352350;75;50627;-77
2022/10/16 04:05:42;;;;;;;;;;;;;;;18.74;68.49;100658.17;2379172;74;51538;-77
2022/10/16 04:08:44;;;;;;;;;;;;;;;18.73;68.39;100656.52;2379052;73;51467;-77
2022/10/16 04:11:45;;;;;;;;;;;;;;;18.74;68.31;100664.88;2353486;74;50947;-77
2022/10/16 04:14:47;;;;;;;;;;;;;;;18.76;68.41;100669.58;2351917;75;51521;-77
2022/10/16 04:17:49;;;;;;;;;;;;;;;18.76;68.39;100675.45;2352205;75;50065;-77
2022/10/16 04:20:50;;;;;;;;;;;;;;;18.75;68.31;100667.90;2352228;75;50404;-77
2022/10/16 04:23:52;;;;;;;;;;;;;;;18.76;68.24;100674.12;2352099;75;50270;-76
2022/10/16 04:26:53;;;;;;;;;;;;;;;18.76;68.24;100668.75;2350374;73;50697;-77
2022/10/16 04:29:55;;;;;;;;;;;;;;;18.76;68.18;100669.58;2379380;74;51548;-77
2022/10/16 04:32:56;;;;;;;;;;;;;;;18.75;68.10;100666.56;2379441;75;51491;-77
2022/10/16 04:35:58;;;;;;;;;;;;;;;18.75;68.15;100657.17;2325585;75;52515;-77
2022/10/16 04:39:00;;;;;;;;;;;;;;;18.75;68.17;100660.34;2379148;73;51601;-77
2022/10/16 04:42:02;;;;;;;;;;;;;;;18.76;68.31;100659.38;2379305;75;51592;-77
2022/10/16 04:45:05;;;;;;;;;;;;;;;18.75;68.24;100646.45;2352586;75;50669;-77
2022/10/16 04:48:06;;;;;;;;;;;;;;;18.74;68.06;100644.77;2354225;74;51100;-78
2022/10/16 04:51:08;;;;;;;;;;;;;;;18.75;68.39;100647.80;2352782;75;50246;-78
2022/10/16 04:54:10;;;;;;;;;;;;;;;18.74;68.08;100646.63;2351958;75;50366;-77
2022/10/16 04:57:11;;;;;;;;;;;;;;;18.74;68.07;100652.81;2348851;75;50195;-78
2022/10/16 05:00:13;;;;;;;;;;;;;;;18.74;68.10;100654.16;2313713;76;50984;-78
2022/10/16 05:03:15;;;;;;;;;;;;;;;18.74;67.98;100651.47;2312091;76;50424;-78
2022/10/16 05:06:16;;;;;;;;;;;;;;;18.73;67.98;100660.54;2342674;75;50728;-77
2022/10/16 05:09:18;;;;;;;;;;;;;;;18.74;67.92;100672.91;2353108;75;52193;-78
2022/10/16 05:12:20;;;;;;;;;;;;;;;18.73;67.94;100681.98;2326442;75;50892;-78
2022/10/16 05:15:24;;;;;;;;;;;;;;;18.74;68.10;100682.30;2379737;74;50701;-78
2022/10/16 05:18:25;;;;;;;;;;;;;;;18.72;68.00;100693.19;2380140;73;22601;-78
2022/10/16 05:21:26;;;;;;;;;;;;;;;18.72;67.98;100686.48;2380190;74;51560;-77
2022/10/16 05:24:28;;;;;;;;;;;;;;;18.73;67.95;100692.70;2330216;75;50068;-78
2022/10/16 05:27:29;;;;;;;;;;;;;;;18.73;67.94;100692.70;2342704;75;50152;-78
2022/10/16 05:30:31;;;;;;;;;;;;;;;18.74;67.92;100693.53;2365595;75;50792;-78
2022/10/16 05:33:33;;;;;;;;;;;;;;;18.74;68.45;100688.17;2349117;75;50634;-78
2022/10/16 05:36:34;;;;;;;;;;;;;;;18.74;68.14;100694.36;2356753;74;49622;-78
2022/10/16 05:39:36;;;;;;;;;;;;;;;18.75;67.94;100687.14;2311284;76;50348;-78
2022/10/16 05:42:38;;;;;;;;;;;;;;;18.74;67.92;100690.85;2337296;75;50333;-78
2022/10/16 05:45:39;;;;;;;;;;;;;;;18.74;68.03;100690.85;2337135;75;50245;-78
2022/10/16 05:48:41;;;;;;;;;;;;;;;18.76;68.22;100689.69;2324703;75;51757;-78
2022/10/16 05:51:43;;;;;;;;;;;;;;;18.74;67.84;100705.08;2337292;75;50625;-78
2022/10/16 05:54:44;;;;;;;;;;;;;;;18.75;67.85;100707.25;2337050;76;51511;-78
2022/10/16 05:57:46;;;;;;;;;;;;;;;18.73;67.84;100703.42;2337196;75;50727;-77
2022/10/16 06:00:55;;;;;;;;;;;;;;;18.74;67.82;100702.40;2333822;75;50903;-77
2022/10/16 06:03:57;;;;;;;;;;;;;;;18.75;67.77;100707.25;2332882;75;50640;-78
2022/10/16 06:07:03;;;;;;;;;;;;;;;18.74;67.85;100703.74;2334076;75;50176;-78
2022/10/16 06:10:02;;;;;;;;;;;;;;;18.73;67.80;100704.77;2333688;75;22488;-77
2022/10/16 06:13:04;;;;;;;;;;;;;;;18.74;67.99;100709.61;2321460;76;51836;-78
2022/10/16 06:16:06;;;;;;;;;;;;;;;18.75;68.27;100717.48;2308048;76;51481;-78
2022/10/16 06:19:09;;;;;;;;;;;;;;;18.75;67.94;100715.29;2334252;75;50700;-78
2022/10/16 06:22:10;;;;;;;;;;;;;;;18.74;67.92;100717.66;2308593;76;50459;-78
2022/10/16 06:25:12;;;;;;;;;;;;;;;18.74;67.85;100725.70;2321234;76;51792;-78
2022/10/16 06:28:16;;;;;;;;;;;;;;;18.74;67.88;100727.04;2308291;76;50631;-78
2022/10/16 06:31:18;;;;;;;;;;;;;;;18.73;67.90;100722.19;2360637;75;51610;-78
2022/10/16 06:34:20;;;;;;;;;;;;;;;18.73;67.90;100715.48;2379843;74;50734;-78
2022/10/16 06:37:22;;;;;;;;;;;;;;;18.73;68.08;100723.53;2353160;73;51521;-78
2022/10/16 06:40:23;;;;;;;;;;;;;;;18.74;67.90;100738.59;2352962;75;50652;-77
2022/10/16 06:43:25;;;;;;;;;;;;;;;18.74;67.98;100745.80;2376891;74;50622;-78
2022/10/16 06:46:26;;;;;;;;;;;;;;;18.74;67.87;100753.33;2379802;73;50737;-78
2022/10/16 06:49:28;;;;;;;;;;;;;;;18.74;67.83;100765.91;2326109;75;50594;-77
2022/10/16 06:52:30;;;;;;;;;;;;;;;18.74;67.76;100760.03;2352596;75;50361;-78
2022/10/16 06:55:31;;;;;;;;;;;;;;;18.74;67.70;100761.38;2379353;75;50399;-79
2022/10/16 06:58:33;;;;;;;;;;;;;;;18.75;67.67;100763.06;2352385;75;50667;-78
2022/10/16 07:01:34;;;;;;;;;;;;;;;18.74;67.72;100769.41;2317751;74;49916;-78
2022/10/16 07:04:36;;;;;;;;;;;;;;;18.74;67.62;100769.41;2347508;75;50241;-78
2022/10/16 07:07:38;;;;;;;;;;;;;;;18.75;67.58;100767.56;2379290;75;50266;-79
2022/10/16 07:10:39;;;;;;;;;;;;;;;18.74;67.51;100769.92;2353429;75;49988;-79
2022/10/16 07:13:41;;;;;;;;;;;;;;;18.74;67.57;100769.41;2326968;75;50063;-78
2022/10/16 07:16:43;;;;;;;;;;;;;;;18.76;67.48;100788.04;2353510;73;50185;-78
2022/10/16 07:19:45;;;;;;;;;;;;;;;18.76;67.44;100799.59;2379346;75;50599;-79
2022/10/16 07:22:46;;;;;;;;;;;;;;;18.77;67.56;100799.08;2379297;75;51467;-78
2022/10/16 07:25:50;;;;;;;;;;;;;;;18.78;67.53;100792.69;2353154;75;49449;-78
2022/10/16 07:28:52;;;;;;;;;;;;;;;18.77;67.53;100782.99;2378152;74;50463;-78
2022/10/16 07:31:53;;;;;;;;;;;;;;;18.77;67.55;100796.39;2378457;75;51583;-79
2022/10/16 07:34:55;;;;;;;;;;;;;;;18.77;67.55;100799.91;2317459;76;51551;-78
2022/10/16 07:37:57;;;;;;;;;;;;;;;18.80;67.50;100798.20;2312885;76;50150;-79
2022/10/16 07:41:02;;;;;;;;;;;;;;;18.81;67.48;100789.16;2311533;76;51615;-80
2022/10/16 07:44:04;;;;;;;;;;;;;;;18.80;67.50;100792.83;2337847;76;51527;-81
2022/10/16 07:47:06;;;;;;;;;;;;;;;18.82;67.55;100801.53;2338005;75;50767;-79
2022/10/16 07:50:08;;;;;;;;;;;;;;;18.84;67.45;100798.69;2286477;76;50093;-76
2022/10/16 07:53:09;;;;;;;;;;;;;;;18.85;67.37;100801.17;2311523;76;50433;-76
2022/10/16 07:56:11;;;;;;;;;;;;;;;18.83;67.57;100797.86;2311275;76;49998;-76
2022/10/16 07:59:13;;;;;;;;;;;;;;;18.85;67.48;100797.66;2342450;74;51551;-76
2022/10/16 08:02:14;;;;;;;;;;;;;;;18.83;67.40;100805.91;2319052;74;52721;-76
2022/10/16 08:05:16;;;;;;;;;;;;;;;18.83;67.49;100799.20;2352478;75;50301;-75
2022/10/16 08:08:18;;;;;;;;;;;;;;;18.82;67.50;100810.92;2353324;74;50045;-76
2022/10/16 08:11:19;;;;;;;;;;;;;;;18.83;67.41;100819.79;2353466;75;51559;-75
2022/10/16 08:14:21;;;;;;;;;;;;;;;18.84;67.39;100817.45;2352339;74;51485;-76
2022/10/16 08:17:23;;;;;;;;;;;;;;;18.82;67.43;100828.34;2353510;73;52138;-77
2022/10/16 08:20:24;;;;;;;;;;;;;;;18.85;67.42;100845.92;2379453;75;50431;-77
2022/10/16 08:23:26;;;;;;;;;;;;;;;18.85;67.33;100833.34;2353582;75;52153;-77
2022/10/16 08:26:28;;;;;;;;;;;;;;;18.84;67.29;100834.37;2353701;74;51009;-77
2022/10/16 08:29:29;;;;;;;;;;;;;;;18.87;67.28;100827.81;2378756;75;51520;-76
2022/10/16 08:32:31;;;;;;;;;;;;;;;18.87;67.24;100837.19;2359844;74;51583;-77
2022/10/16 08:35:32;;;;;;;;;;;;;;;18.85;67.23;100835.19;2353861;75;51601;-77
2022/10/16 08:38:34;;;;;;;;;;;;;;;18.85;67.37;100831.17;2353856;75;50081;-77
2022/10/16 08:41:40;;;;;;;;;;;;;;;18.83;67.41;100838.07;2379380;74;52469;-76
2022/10/16 08:44:49;;;;;;;;;;;;;;;18.84;67.33;100838.39;2377922;74;50429;-77
2022/10/16 08:47:55;;;;;;;;;;;;;;;18.84;67.44;100839.73;2378360;73;51587;-77
2022/10/16 08:50:57;;;;;;;;;;;;;;;18.84;67.34;100841.58;2353426;75;51028;-76
2022/10/16 08:53:59;;;;;;;;;;;;;;;18.82;67.43;100834.22;2378920;74;51519;-76
2022/10/16 08:57:02;;;;;;;;;;;;;;;18.82;67.43;100843.09;2378158;73;50820;-76
2022/10/16 09:00:08;;;;;;;;;;;;;;;18.82;67.44;100843.09;2363065;75;50802;-76
2022/10/16 09:03:27;;;;;;;;;;;;;;;18.84;67.48;100846.43;2352853;75;51438;-76
2022/10/16 09:06:48;;;;;;;;;;;;;;;18.83;67.44;100860.86;2378784;73;50843;-77
2022/10/16 09:09:51;;;;;;;;;;;;;;;18.84;67.46;100862.52;2379047;74;52328;-77
2022/10/16 09:12:54;;;;;;;;;;;;;;;18.85;67.43;100854.78;2378904;74;51577;-77
2022/10/16 09:16:03;;;;;;;;;;;;;;;18.86;67.40;100867.20;2349743;75;49719;-76
2022/10/16 09:19:06;;;;;;;;;;;;;;;18.87;67.40;100876.90;2378270;73;51688;-77
2022/10/16 09:22:13;;;;;;;;;;;;;;;18.90;67.34;100889.94;2378606;74;51621;-77
2022/10/16 09:25:15;;;;;;;;;;;;;;;18.89;67.41;100888.28;2378985;75;51549;-76
2022/10/16 09:28:17;;;;;;;;;;;;;;;18.90;67.35;100880.55;2353562;74;49562;-81
2022/10/16 09:31:19;;;;;;;;;;;;;;;18.93;67.22;100874.86;2379060;74;50774;-77
2022/10/16 09:34:26;;;;;;;;;;;;;;;18.91;67.30;100871.52;2378848;74;50417;-76
2022/10/16 09:37:28;;;;;;;;;;;;;;;18.91;67.31;100872.86;2378885;73;50297;-77
2022/10/16 09:40:31;;;;;;;;;;;;;;;18.89;67.41;100878.08;2353543;75;51011;-76
2022/10/16 09:43:51;;;;;;;;;;;;;;;18.90;67.33;100878.39;2368820;75;51551;-76
2022/10/16 09:47:05;;;;;;;;;;;;;;;18.90;67.31;100889.94;2362519;75;50301;-76
2022/10/16 09:50:08;;;;;;;;;;;;;;;18.94;67.22;100898.48;2378966;75;50773;-76
2022/10/16 09:53:13;;;;;;;;;;;;;;;18.93;67.25;100888.75;2351102;75;51335;-76
2022/10/16 09:56:25;;;;;;;;;;;;;;;18.91;67.32;100903.69;2353032;75;51555;-77
2022/10/16 09:59:28;;;;;;;;;;;;;;;18.92;67.33;100908.03;2379030;75;50420;-77
2022/10/16 10:02:33;;;;;;;;;;;;;;;18.90;67.38;100915.92;2379119;75;51610;-77
2022/10/16 10:05:35;;;;;;;;;;;;;;;18.91;67.37;100918.44;2353212;75;50300;-76
2022/10/16 10:08:37;;;;;;;;;;;;;;;18.92;67.33;100921.44;2379147;75;50387;-76
2022/10/16 10:11:43;;;;;;;;;;;;;;;18.92;67.32;100922.78;2379259;75;50372;-77
2022/10/16 10:14:46;;;;;;;;;;;;;;;18.92;67.34;100928.14;2374201;74;50365;-77
2022/10/16 10:17:48;;;;;;;;;;;;;;;18.93;67.34;100928.97;2352394;74;51685;-76
2022/10/16 10:21:00;;;;;;;;;;;;;;;18.95;67.33;100936.84;2351821;75;51491;-77
2022/10/16 10:24:01;;;;;;;;;;;;;;;18.96;67.25;100931.80;2378883;75;50679;-76
2022/10/16 10:27:04;;;;;;;;;;;;;;;18.95;67.31;100928.29;2352073;73;51508;-78
2022/10/16 10:30:16;;;;;;;;;;;;;;;18.93;67.30;100928.97;2353505;75;50974;-77
2022/10/16 10:33:19;;;;;;;;;;;;;;;18.96;67.32;100939.36;2379197;75;50872;-76
2022/10/16 10:36:31;;;;;;;;;;;;;;;18.95;67.32;100939.02;2379448;75;50682;-77
2022/10/16 10:39:35;;;;;;;;;;;;;;;18.95;67.28;100934.17;2379335;75;51508;-77
2022/10/16 10:42:41;;;;;;;;;;;;;;;18.96;67.29;100943.87;2353487;75;52555;-76
2022/10/16 10:45:43;;;;;;;;;;;;;;;18.96;67.23;100950.09;2378921;74;50388;-76
2022/10/16 10:49:03;;;;;;;;;;;;;;;18.98;67.17;100947.20;2379404;73;50775;-77
2022/10/16 10:52:23;;;;;;;;;;;;;;;19.01;67.07;100950.88;2379382;75;50416;-76
2022/10/16 10:55:36;;;;;;;;;;;;;;;18.99;67.10;100952.41;2353170;74;50050;-78
2022/10/16 10:58:45;;;;;;;;;;;;;;;19.01;66.94;100941.48;2369419;75;50796;-78
2022/10/16 11:01:57;;;;;;;;;;;;;;;19.00;67.10;100948.70;2333889;76;51684;-78
2022/10/16 11:05:00;;;;;;;;;;;;;;;18.99;67.12;100952.41;2353137;75;51047;-77
2022/10/16 11:08:03;;;;;;;;;;;;;;;19.01;66.99;100953.07;2369223;75;50689;-79
2022/10/16 11:11:12;;;;;;;;;;;;;;;19.02;67.11;100949.88;2330679;76;50803;-79
2022/10/16 11:14:15;;;;;;;;;;;;;;;19.04;66.93;100950.54;2297630;76;52381;-79
2022/10/16 11:17:19;;;;;;;;;;;;;;;19.05;67.06;100958.90;2327161;74;51614;-78
2022/10/16 11:20:22;;;;;;;;;;;;;;;19.05;67.12;100963.75;2295312;77;49990;-79
2022/10/16 11:23:31;;;;;;;;;;;;;;;19.04;67.10;100959.41;2317107;77;51490;-78
2022/10/16 11:26:36;;;;;;;;;;;;;;;19.06;67.16;100956.53;2338575;75;50817;-78
2022/10/16 11:29:39;;;;;;;;;;;;;;;19.07;67.11;100958.22;2338555;76;50672;-78
2022/10/16 11:32:43;;;;;;;;;;;;;;;19.10;67.13;100953.83;2313319;76;50991;-79
2022/10/16 11:35:46;;;;;;;;;;;;;;;19.10;67.11;100956.52;2337325;76;51558;-77
2022/10/16 11:38:55;;;;;;;;;;;;;;;19.09;67.15;100955.69;2338546;75;51613;-78
2022/10/16 11:42:01;;;;;;;;;;;;;;;19.12;67.12;100961.20;2338860;75;50396;-78
2022/10/16 11:45:20;;;;;;;;;;;;;;;19.14;67.03;100953.81;2358185;74;50768;-78
2022/10/16 11:48:40;;;;;;;;;;;;;;;19.13;67.02;100958.32;2379746;73;51679;-77
2022/10/16 11:51:46;;;;;;;;;;;;;;;19.17;66.94;100946.75;2379712;75;50796;-78
2022/10/16 11:54:49;;;;;;;;;;;;;;;19.13;66.83;100954.30;2379568;75;50317;-76
2022/10/16 11:57:52;;;;;;;;;;;;;;;19.12;66.90;100956.67;2354240;74;49692;-78
2022/10/16 12:00:55;;;;;;;;;;;;;;;19.12;67.06;100964.72;2348024;74;50740;-78
2022/10/16 12:03:59;;;;;;;;;;;;;;;19.15;67.03;100967.55;2334061;75;50413;-78
2022/10/16 12:07:02;;;;;;;;;;;;;;;19.18;66.95;100972.55;2332905;75;50421;-78
2022/10/16 12:10:20;;;;;;;;;;;;;;;19.18;66.94;100972.55;2321406;76;51444;-78
2022/10/16 12:13:35;;;;;;;;;;;;;;;19.19;66.94;100977.40;2332610;75;51632;-78
2022/10/16 12:16:56;;;;;;;;;;;;;;;19.20;66.93;100979.91;2333813;75;50440;-77
2022/10/16 12:19:59;;;;;;;;;;;;;;;19.20;66.91;100987.13;2333680;74;50669;-78
2022/10/16 12:23:02;;;;;;;;;;;;;;;19.21;66.80;100984.25;2321280;76;50146;-78
2022/10/16 12:26:04;;;;;;;;;;;;;;;19.22;66.71;100995.33;2332635;75;51587;-76
2022/10/16 12:29:25;;;;;;;;;;;;;;;19.21;66.76;100980.23;2312444;75;51577;-77
2022/10/16 12:32:31;;;;;;;;;;;;;;;19.18;66.83;100994.01;2340264;75;50654;-77
2022/10/16 12:35:36;;;;;;;;;;;;;;;19.18;66.75;100989.98;2321066;76;50285;-77
2022/10/16 12:38:49;;;;;;;;;;;;;;;19.21;66.68;100997.67;2333265;75;50760;-78
2022/10/16 12:41:52;;;;;;;;;;;;;;;19.22;66.83;100995.84;2376720;73;50434;-76
2022/10/16 12:44:54;;;;;;;;;;;;;;;19.24;66.83;100998.67;2359643;75;50456;-76
2022/10/16 12:47:55;;;;;;;;;;;;;;;19.28;66.67;100999.97;2351912;75;52635;-77
2022/10/16 12:50:57;;;;;;;;;;;;;;;19.27;66.60;100995.63;2378802;75;52633;-76
2022/10/16 12:54:02;;;;;;;;;;;;;;;19.28;66.61;100995.95;2368301;75;50716;-76
2022/10/16 12:57:08;;;;;;;;;;;;;;;19.28;66.62;100998.63;2391048;74;50847;-75
2022/10/16 13:00:23;;;;;;;;;;;;;;;19.30;66.57;101010.02;2353001;74;49834;-76
2022/10/16 13:03:30;;;;;;;;;;;;;;;19.34;66.47;101004.64;2329375;76;50623;-76
2022/10/16 13:06:48;;;;;;;;;;;;;;;19.34;66.48;101005.12;2368548;74;50687;-76
2022/10/16 13:09:51;;;;;;;;;;;;;;;19.34;66.47;101016.71;2367647;74;51351;-75
2022/10/16 13:13:01;;;;;;;;;;;;;;;19.36;66.47;101021.88;2357655;75;51018;-75
2022/10/16 13:16:10;;;;;;;;;;;;;;;19.36;66.47;101027.25;2368002;74;51628;-75
2022/10/16 13:19:20;;;;;;;;;;;;;;;19.35;66.47;101025.59;2368410;75;51420;-75
2022/10/16 13:22:38;;;;;;;;;;;;;;;19.38;66.43;101019.86;2368519;75;50777;-76
2022/10/16 13:25:44;;;;;;;;;;;;;;;19.35;66.47;101030.45;2357636;75;49644;-76
2022/10/16 13:28:46;;;;;;;;;;;;;;;19.34;66.48;101040.00;2368402;75;51519;-76
2022/10/16 13:31:47;;;;;;;;;;;;;;;19.33;66.47;101045.88;2365492;75;51482;-76
2022/10/16 13:34:49;;;;;;;;;;;;;;;19.31;66.50;101045.22;2368259;75;50671;-75
2022/10/16 13:37:51;;;;;;;;;;;;;;;19.31;66.49;101048.41;2358028;75;49626;-76
2022/10/16 13:41:00;;;;;;;;;;;;;;;19.29;66.51;101051.77;2358486;75;51463;-78
2022/10/16 13:44:02;;;;;;;;;;;;;;;19.29;66.47;101054.45;2368253;75;51497;-75
2022/10/16 13:47:03;;;;;;;;;;;;;;;19.27;66.50;101060.02;2368284;75;51525;-75
2022/10/16 13:50:06;;;;;;;;;;;;;;;19.25;66.47;101059.36;2358038;75;52563;-76
2022/10/16 13:53:07;;;;;;;;;;;;;;;19.25;66.43;101052.65;2358182;75;51555;-75
2022/10/16 13:56:14;;;;;;;;;;;;;;;19.25;66.43;101062.04;2368349;75;50376;-77
2022/10/16 13:59:25;;;;;;;;;;;;;;;19.25;66.39;101053.98;2366771;75;50307;-75
2022/10/16 14:02:31;;;;;;;;;;;;;;;19.25;66.44;101062.04;2350499;75;50967;-75
2022/10/16 14:05:32;;;;;;;;;;;;;;;19.28;66.36;101062.19;2368279;75;50764;-75
2022/10/16 14:08:34;;;;;;;;;;;;;;;19.27;66.39;101060.02;2368413;75;51520;-75
2022/10/16 14:11:37;;;;;;;;;;;;;;;19.28;66.39;101063.02;2368414;75;51470;-76
2022/10/16 14:14:43;;;;;;;;;;;;;;;19.31;66.32;101072.05;2357929;75;51917;-75
2022/10/16 14:17:46;;;;;;;;;;;;;;;19.32;66.30;101072.39;2368357;75;51708;-76
2022/10/16 14:20:47;;;;;;;;;;;;;;;19.32;66.30;101063.01;2368351;75;50406;-77
2022/10/16 14:23:49;;;;;;;;;;;;;;;19.33;66.36;101076.73;2368378;75;50728;-77
2022/10/16 14:26:51;;;;;;;;;;;;;;;19.34;66.32;101082.45;2358130;75;50949;-76
2022/10/16 14:29:54;;;;;;;;;;;;;;;19.34;66.35;101081.11;2356953;75;52440;-76
2022/10/16 14:32:56;;;;;;;;;;;;;;;19.35;66.33;101080.59;2381104;74;51551;-76
2022/10/16 14:36:05;;;;;;;;;;;;;;;19.34;66.32;101077.09;2378997;74;50304;-76
2022/10/16 14:39:08;;;;;;;;;;;;;;;19.34;66.31;101081.59;2353447;74;49622;-76
2022/10/16 14:42:14;;;;;;;;;;;;;;;19.33;66.29;101078.08;2378054;74;50414;-76
2022/10/16 14:45:17;;;;;;;;;;;;;;;19.32;66.36;101076.42;2378775;75;51580;-76
2022/10/16 14:48:19;;;;;;;;;;;;;;;19.31;66.37;101079.27;2378889;73;50875;-77
2022/10/16 14:51:22;;;;;;;;;;;;;;;19.31;66.33;101091.34;2353431;75;50046;-76
2022/10/16 14:54:23;;;;;;;;;;;;;;;19.31;66.29;101096.20;2326794;75;50322;-77
2022/10/16 14:57:26;;;;;;;;;;;;;;;19.31;66.24;101092.69;2330870;75;50407;-77
2022/10/16 15:00:28;;;;;;;;;;;;;;;19.30;66.24;101098.56;2360633;74;50705;-76
2022/10/16 15:03:30;;;;;;;;;;;;;;;19.29;66.26;101094.22;2355919;74;50985;-76
2022/10/16 15:06:31;;;;;;;;;;;;;;;19.29;66.20;101098.73;2355441;74;51464;-76
2022/10/16 15:09:33;;;;;;;;;;;;;;;19.27;66.20;101105.63;2391429;74;50485;-77
2022/10/16 15:12:34;;;;;;;;;;;;;;;19.26;66.20;101102.60;2391378;74;50419;-77
2022/10/16 15:15:37;;;;;;;;;;;;;;;19.28;66.17;101107.80;2355553;74;50077;-77
2022/10/16 15:18:39;;;;;;;;;;;;;;;19.26;66.12;101111.16;2391526;74;51579;-77
2022/10/16 15:21:40;;;;;;;;;;;;;;;19.25;66.14;101107.65;2391493;74;51558;-76
2022/10/16 15:24:42;;;;;;;;;;;;;;;19.24;66.14;101112.70;2391228;74;51527;-76
2022/10/16 15:27:44;;;;;;;;;;;;;;;19.25;66.07;101123.75;2329078;74;50926;-76
2022/10/16 15:30:45;;;;;;;;;;;;;;;19.21;66.12;101134.48;2352304;75;51594;-76
2022/10/16 15:33:52;;;;;;;;;;;;;;;19.20;66.17;101122.09;2342023;75;51533;-76
2022/10/16 15:36:50;;;;;;;;;;;;;;;19.18;66.20;101130.81;2341660;75;22279;-77
2022/10/16 15:39:52;;;;;;;;;;;;;;;19.16;66.21;101136.86;2341372;75;51811;-76
2022/10/16 15:42:53;;;;;;;;;;;;;;;19.13;66.24;101142.06;2341840;75;51537;-76